createdAt,value
2019-06-07T00:05:07.690Z,8.20
2019-06-07T00:10:36.521Z,8.05
2019-06-07T00:15:54.596Z,8.58
2019-06-07T00:21:17.883Z,8.73
2019-06-07T00:26:57.069Z,7.97
2019-06-07T00:32:04.130Z,8.88
2019-06-07T00:37:25.837Z,8.90
2019-06-07T00:42:47.602Z,8.78
2019-06-07T00:48:16.010Z,9.50
2019-06-07T00:53:32.919Z,9.63
2019-06-07T00:59:10.774Z,9.45
2019-06-07T01:04:20.763Z,8.93
2019-06-07T01:09:41.565Z,9.30
2019-06-07T01:15:03.369Z,10.05
2019-06-07T01:20:27.298Z,9.65
2019-06-07T01:25:49.012Z,9.53
2019-06-07T01:31:10.787Z,9.18
2019-06-07T01:36:32.494Z,10.55
2019-06-07T01:41:54.346Z,10.68
2019-06-07T01:47:17.853Z,10.60
2019-06-07T01:52:39.563Z,10.40
2019-06-07T01:58:01.327Z,10.32
2019-06-07T02:03:28.794Z,10.63
2019-06-07T02:08:46.555Z,10.60
2019-06-07T02:14:08.970Z,10.20
2019-06-07T02:19:32.740Z,11.00
2019-06-07T02:25:34.488Z,10.63
2019-06-07T02:35:41.934Z,10.10
2019-06-07T02:41:03.628Z,10.38
2019-06-07T02:46:38.157Z,10.68
2019-06-07T02:51:50.025Z,11.08
2019-06-07T02:57:11.748Z,10.80
2019-06-07T03:02:41.208Z,11.28
2019-06-07T03:08:00.089Z,10.75
2019-06-07T03:13:28.912Z,12.15
2019-06-07T03:18:56.859Z,12.23
2019-06-07T03:24:18.580Z,11.88
2019-06-07T03:29:41.353Z,12.23
2019-06-07T03:35:03.411Z,11.38
2019-06-07T03:40:25.213Z,12.45
2019-06-07T03:45:46.924Z,12.80
2019-06-07T03:51:24.024Z,13.13
2019-06-07T03:56:33.721Z,10.75
2019-06-07T04:01:55.504Z,12.58
2019-06-07T04:07:17.206Z,11.10
2019-06-07T04:12:43.489Z,12.20
2019-06-07T04:18:04.061Z,11.38
2019-06-07T04:23:30.038Z,13.20
2019-06-07T04:34:13.732Z,14.70
2019-06-07T04:39:43.607Z,14.15
2019-06-07T04:45:00.061Z,14.98
2019-06-07T04:50:22.705Z,15.00
2019-06-07T04:55:44.405Z,16.60
2019-06-07T05:01:24.361Z,16.05
2019-06-07T05:06:30.054Z,17.42
2019-06-07T05:11:52.668Z,16.27
2019-06-07T05:17:14.411Z,16.35
2019-06-07T05:22:40.779Z,15.32
2019-06-07T05:27:59.574Z,15.98
2019-06-07T05:33:22.159Z,16.07
2019-06-07T05:38:45.010Z,16.37
2019-06-07T05:44:12.740Z,16.90
2019-06-07T05:49:32.901Z,15.43
2019-06-07T05:54:55.027Z,16.73
2019-06-07T06:00:18.443Z,16.65
2019-06-07T06:05:48.194Z,16.73
2019-06-07T06:11:03.707Z,15.93
2019-06-07T06:16:25.459Z,16.12
2019-06-07T06:21:48.604Z,18.40
2019-06-07T06:27:28.465Z,16.82
2019-06-07T06:32:48.832Z,16.75
2019-06-07T06:37:57.970Z,17.45
2019-06-07T06:43:21.271Z,15.95
2019-06-07T06:48:48.242Z,15.72
2019-06-07T06:54:06.473Z,16.85
2019-06-07T06:59:38.631Z,14.98
2019-06-07T07:04:54.092Z,17.00
2019-06-07T07:10:17.958Z,15.35
2019-06-07T07:15:39.772Z,16.35
2019-06-07T07:21:01.569Z,17.55
2019-06-07T07:26:23.295Z,16.75
2019-06-07T07:31:45.603Z,15.18
2019-06-07T07:37:08.486Z,15.70
2019-06-07T07:42:30.262Z,15.08
2019-06-07T07:48:08.271Z,19.35
2019-06-07T07:53:15.645Z,15.60
2019-06-07T07:58:37.412Z,16.37
2019-06-07T08:03:59.218Z,17.15
2019-06-07T08:09:21.014Z,16.73
2019-06-07T08:14:42.733Z,15.05
2019-06-07T08:20:04.976Z,14.78
2019-06-07T08:25:29.073Z,15.75
2019-06-07T08:30:57.579Z,16.70
2019-06-07T08:36:21.887Z,16.48
2019-06-07T08:41:53.489Z,15.17
2019-06-07T08:47:19.259Z,15.10
2019-06-07T08:52:26.322Z,14.85
2019-06-07T08:57:48.724Z,14.65
2019-06-07T09:03:10.910Z,13.20
2019-06-07T09:08:32.622Z,14.07
2019-06-07T09:13:57.056Z,13.05
2019-06-07T09:19:17.875Z,15.28
2019-06-07T09:24:39.624Z,12.23
2019-06-07T09:30:08.074Z,12.93
2019-06-07T09:35:26.318Z,11.95
2019-06-07T09:40:48.298Z,12.53
2019-06-07T09:46:14.725Z,12.18
2019-06-07T09:51:33.522Z,12.37
2019-06-07T09:56:55.346Z,13.05
2019-06-07T10:02:17.244Z,12.03
2019-06-07T10:07:57.253Z,11.80
2019-06-07T10:13:04.080Z,11.55
2019-06-07T10:18:25.969Z,11.95
2019-06-07T10:23:47.790Z,11.33
2019-06-07T10:29:10.352Z,11.88
2019-06-07T10:34:32.176Z,11.18
2019-06-07T10:39:53.948Z,10.58
2019-06-07T10:45:16.994Z,9.65
2019-06-07T10:50:38.840Z,25.92
2019-06-07T10:56:00.632Z,11.03
2019-06-07T11:01:22.734Z,9.35
2019-06-07T11:06:44.534Z,9.45
2019-06-07T11:12:06.585Z,9.38
2019-06-07T11:17:28.417Z,10.03
2019-06-07T11:22:50.200Z,9.35
2019-06-07T11:28:14.491Z,8.45
2019-06-07T11:33:36.762Z,8.03
2019-06-07T11:38:58.465Z,8.78
2019-06-07T11:44:20.257Z,9.55
2019-06-07T11:49:41.972Z,9.43
2019-06-07T11:55:03.692Z,9.23
2019-06-07T12:00:34.013Z,10.23
2019-06-07T12:05:53.769Z,10.03
2019-06-07T12:11:16.549Z,9.90
2019-06-07T12:16:38.417Z,9.43
2019-06-07T12:22:00.152Z,6.97
2019-06-07T12:27:21.922Z,5.78
2019-06-07T12:32:43.674Z,5.33
2019-06-07T12:38:05.992Z,4.75
2019-06-07T12:43:27.740Z,4.65
2019-06-07T12:48:49.474Z,4.53
2019-06-07T12:54:11.309Z,5.97
2019-06-07T12:59:33.003Z,6.15
2019-06-07T13:04:55.130Z,6.42
2019-06-07T13:10:17.984Z,5.83
2019-06-07T13:15:39.964Z,5.42
2019-06-07T13:21:01.771Z,5.10
2019-06-07T13:26:24.929Z,5.17
2019-06-07T13:31:46.986Z,5.50
2019-06-07T13:37:08.671Z,4.45
2019-06-07T13:42:30.377Z,4.30
2019-06-07T13:47:52.182Z,4.28
2019-06-07T13:53:13.993Z,4.17
2019-06-07T13:58:35.834Z,8.10
2019-06-07T14:03:59.195Z,4.55
2019-06-07T14:09:21.150Z,5.35
2019-06-07T14:14:42.982Z,5.53
2019-06-07T14:20:05.382Z,5.55
2019-06-07T14:25:29.248Z,5.35
2019-06-07T14:30:51.228Z,6.05
2019-06-07T14:36:13.443Z,10.60
2019-06-07T14:41:35.131Z,5.60
2019-06-07T14:46:56.844Z,5.62
2019-06-07T14:52:18.720Z,6.78
2019-06-07T14:57:41.259Z,7.28
2019-06-07T15:03:02.983Z,6.40
2019-06-07T15:08:24.909Z,6.28
2019-06-07T15:13:46.627Z,7.12
2019-06-07T15:19:08.402Z,6.33
2019-06-07T15:24:33.665Z,5.40
2019-06-07T15:29:53.519Z,6.70
2019-06-07T15:35:16.925Z,4.92
2019-06-07T15:40:39.671Z,5.15
2019-06-07T15:46:05.908Z,4.67
2019-06-07T15:51:27.594Z,4.15
2019-06-07T15:56:49.321Z,4.28
2019-06-07T16:02:11.068Z,4.00
2019-06-07T16:07:34.062Z,4.20
2019-06-07T16:13:00.698Z,4.53
2019-06-07T16:18:19.309Z,4.87
2019-06-07T16:23:42.131Z,5.30
2019-06-07T16:29:04.031Z,5.80
2019-06-07T16:34:25.757Z,5.22
2019-06-07T16:39:48.565Z,5.85
2019-06-07T16:45:11.977Z,5.12
2019-06-07T16:50:33.919Z,4.65
2019-06-07T16:55:55.661Z,4.60
2019-06-07T17:01:17.480Z,4.35
2019-06-07T17:06:41.681Z,4.47
2019-06-07T17:12:03.595Z,4.15
2019-06-07T17:17:25.307Z,4.37
2019-06-07T17:22:47.629Z,4.65
2019-06-07T17:28:09.314Z,5.50
2019-06-07T17:33:31.048Z,5.20
2019-06-07T17:38:52.796Z,4.97
2019-06-07T17:44:14.600Z,5.08
2019-06-07T17:49:36.357Z,5.85
2019-06-07T17:54:58.119Z,6.12
2019-06-07T18:00:29.354Z,5.33
2019-06-07T18:05:45.198Z,14.03
2019-06-07T18:11:07.073Z,5.97
2019-06-07T18:16:29.267Z,5.08
2019-06-07T18:21:55.561Z,5.47
2019-06-07T18:27:14.414Z,5.40
2019-06-07T18:32:36.162Z,5.70
2019-06-07T18:37:57.872Z,7.28
2019-06-07T18:43:19.574Z,6.08
2019-06-07T18:48:41.325Z,5.95
2019-06-07T18:54:03.061Z,6.37
2019-06-07T18:59:24.790Z,6.35
2019-06-07T19:04:47.900Z,23.62
2019-06-07T19:10:11.737Z,6.90
2019-06-07T19:15:35.056Z,6.33
2019-06-07T19:20:56.792Z,6.67
2019-06-07T19:26:18.500Z,6.72
2019-06-07T19:31:40.307Z,6.60
2019-06-07T19:37:02.181Z,21.95
2019-06-07T19:42:24.080Z,7.85
2019-06-07T19:47:45.993Z,7.72
2019-06-07T19:53:07.735Z,7.42
2019-06-07T19:58:29.466Z,7.97
2019-06-07T20:03:51.191Z,40.30
2019-06-07T20:09:13.170Z,8.58
2019-06-07T20:14:34.932Z,8.55
2019-06-07T20:19:56.660Z,8.23
2019-06-07T20:25:19.199Z,7.50
2019-06-07T20:30:41.017Z,8.55
2019-06-07T20:36:02.800Z,7.53
2019-06-07T20:41:24.509Z,8.85
2019-06-07T20:46:46.255Z,9.08
2019-06-07T20:52:09.570Z,9.00
2019-06-07T20:57:32.950Z,9.33
2019-06-07T21:02:56.235Z,8.00
2019-06-07T21:08:19.638Z,8.83
2019-06-07T21:13:42.970Z,8.98
2019-06-07T21:19:06.587Z,9.23
2019-06-07T21:24:29.860Z,9.83
2019-06-07T21:29:53.123Z,9.97
2019-06-07T21:35:18.038Z,9.07
2019-06-07T21:40:40.932Z,9.43
2019-06-07T21:46:08.171Z,9.43
2019-06-07T21:51:29.320Z,10.10
2019-06-07T21:56:52.632Z,9.57
2019-06-07T22:02:16.367Z,11.60
2019-06-07T22:07:39.902Z,13.38
2019-06-07T22:13:03.912Z,14.20
2019-06-07T22:18:27.035Z,12.35
2019-06-07T22:23:50.014Z,13.55
2019-06-07T22:29:14.397Z,14.00
2019-06-07T22:34:37.797Z,14.17
2019-06-07T22:40:01.101Z,16.47
2019-06-07T22:45:24.960Z,16.93
2019-06-07T22:50:48.247Z,15.83
2019-06-07T22:56:13.927Z,14.60
2019-06-07T23:01:37.441Z,16.10
2019-06-07T23:07:00.696Z,17.43
2019-06-07T23:12:23.965Z,16.87
2019-06-07T23:17:47.047Z,17.98
2019-06-07T23:23:10.095Z,16.42
2019-06-07T23:28:33.440Z,16.23
2019-06-07T23:33:56.745Z,17.70
2019-06-07T23:39:22.022Z,17.80
2019-06-07T23:44:45.062Z,17.93
2019-06-07T23:50:09.170Z,16.50
2019-06-07T23:55:32.538Z,15.90
